| time (UTC) | temp F | wind direction | speed knots | gust knots | rain 1hr in | rain 24hr in | rain mn in | humidity % | barometer mb |
| 20260505100417 | 38 | 160 | 0.0 | 4.3 | 0.06 | 0.08 | 0.06 | 87 | 1006.2 |
| 20260505095917 | 38 | 161 | 0.9 | 4.3 | 0.06 | 0.08 | 0.06 | 88 | 1006.2 |
| 20260505095417 | 38 | 163 | 0.0 | 4.3 | 0.06 | 0.08 | 0.06 | 88 | 1006.3 |
| 20260505094917 | 38 | 163 | 0.9 | 4.3 | 0.06 | 0.08 | 0.06 | 88 | 1006.3 |
| 20260505094417 | 38 | 164 | 1.7 | 4.3 | 0.06 | 0.08 | 0.06 | 88 | 1006.3 |
| 20260505093917 | 38 | 164 | 0.9 | 4.3 | 0.06 | 0.08 | 0.06 | 88 | 1006.3 |
| 20260505093417 | 38 | 164 | 0.9 | 4.3 | 0.06 | 0.08 | 0.06 | 87 | 1006.5 |
| 20260505092917 | 38 | 164 | 0.0 | 4.3 | 0.06 | 0.08 | 0.06 | 88 | 1006.4 |
| 20260505092417 | 38 | 164 | 0.0 | 4.3 | 0.06 | 0.08 | 0.06 | 88 | 1006.5 |
| 20260505091917 | 38 | 164 | 0.9 | 4.3 | 0.06 | 0.08 | 0.06 | 88 | 1006.5 |
| 20260505091417 | 38 | 163 | 0.0 | 4.3 | 0.06 | 0.08 | 0.06 | 88 | 1006.7 |
| 20260505090917 | 38 | 183 | 0.0 | 2.6 | 0.06 | 0.08 | 0.06 | 88 | 1006.6 |
| 20260505090417 | 38 | 186 | 0.0 | 0.0 | 0.06 | 0.08 | 0.06 | 88 | 1006.7 |
| 20260505085917 | 38 | 186 | 0.0 | 4.3 | 0.07 | 0.10 | 0.06 | 87 | 1006.8 |
| 20260505085417 | 38 | 173 | 1.7 | 4.3 | 0.07 | 0.10 | 0.06 | 88 | 1007.0 |
| 20260505084917 | 38 | 163 | 0.0 | 4.3 | 0.07 | 0.10 | 0.06 | 88 | 1006.9 |
| 20260505084417 | 38 | 162 | 0.0 | 4.3 | 0.07 | 0.10 | 0.06 | 88 | 1007.0 |
| 20260505083917 | 38 | 163 | 0.0 | 4.3 | 0.07 | 0.10 | 0.06 | 88 | 1007.0 |
| 20260505083417 | 38 | 163 | 0.0 | 4.3 | 0.07 | 0.10 | 0.06 | 88 | 1007.1 |
| 20260505082917 | 38 | 162 | 0.0 | 4.3 | 0.07 | 0.10 | 0.06 | 88 | 1007.0 |
| 20260505082417 | 38 | 162 | 0.0 | 4.3 | 0.07 | 0.10 | 0.06 | 88 | 1007.0 |
| 20260505081917 | 38 | 162 | 0.0 | 4.3 | 0.07 | 0.10 | 0.06 | 88 | 1007.0 |
| 20260505081417 | 38 | 162 | 1.7 | 4.3 | 0.07 | 0.10 | 0.06 | 88 | 1007.2 |
| 20260505080917 | 38 | 162 | 0.0 | 4.3 | 0.07 | 0.10 | 0.06 | 88 | 1007.2 |
| 20260505080417 | 38 | 162 | 0.0 | 4.3 | 0.06 | 0.09 | 0.05 | 88 | 1007.4 |
| 20260505075917 | 38 | 162 | 1.7 | 4.3 | 0.06 | 0.09 | 0.05 | 88 | 1007.3 |
| 20260505075417 | 38 | 162 | 0.0 | 4.3 | 0.06 | 0.09 | 0.05 | 88 | 1007.2 |
| 20260505074917 | 38 | 162 | 0.0 | 4.3 | 0.06 | 0.09 | 0.05 | 87 | 1007.4 |
| 20260505074417 | 38 | 162 | 0.0 | 4.3 | 0.05 | 0.08 | 0.04 | 88 | 1007.4 |
| 20260505073917 | 38 | 162 | 0.0 | 4.3 | 0.04 | 0.07 | 0.03 | 88 | 1007.3 |
| 20260505073417 | 38 | 162 | 0.0 | 4.3 | 0.04 | 0.07 | 0.03 | 88 | 1007.4 |
| 20260505072917 | 38 | 162 | 0.0 | 4.3 | 0.04 | 0.07 | 0.03 | 88 | 1007.5 |
| 20260505072417 | 38 | 131 | 1.7 | 4.3 | 0.03 | 0.06 | 0.02 | 88 | 1007.5 |
| 20260505071917 | 38 | 131 | 0.9 | 4.3 | 0.02 | 0.05 | 0.01 | 88 | 1007.5 |
| 20260505071417 | 38 | 131 | 0.0 | 4.3 | 0.02 | 0.05 | 0.01 | 88 | 1007.5 |
| 20260505070916 | 38 | 181 | 0.0 | 3.5 | 0.02 | 0.05 | 0.01 | 88 | 1007.4 |
| 20260505070416 | 38 | 161 | 0.0 | 2.6 | 0.01 | 0.04 | 0.00 | 88 | 1007.4 |
| 20260505065916 | 38 | 160 | 0.0 | 5.2 | 0.01 | 0.06 | 0.04 | 88 | 1007.5 |
| 20260505065416 | 38 | 166 | 0.0 | 5.2 | 0.01 | 0.06 | 0.04 | 88 | 1007.7 |
| 20260505064916 | 38 | 168 | 0.0 | 5.2 | 0.01 | 0.06 | 0.04 | 88 | 1007.6 |
| 20260505064416 | 38 | 164 | 1.7 | 5.2 | 0.01 | 0.06 | 0.04 | 88 | 1007.7 |
| 20260505063916 | 38 | 241 | 0.0 | 5.2 | 0.00 | 0.05 | 0.03 | 87 | 1007.6 |
| 20260505063416 | 38 | 227 | 0.9 | 5.2 | 0.00 | 0.05 | 0.03 | 88 | 1007.7 |
| 20260505062916 | 38 | 227 | 0.0 | 5.2 | 0.00 | 0.05 | 0.03 | 88 | 1007.7 |
| 20260505062416 | 38 | 227 | 0.0 | 5.2 | 0.00 | 0.05 | 0.03 | 88 | 1007.7 |
| 20260505061916 | 38 | 227 | 0.0 | 5.2 | 0.00 | 0.05 | 0.03 | 88 | 1007.7 |
| 20260505061416 | 38 | 227 | 0.9 | 5.2 | 0.00 | 0.05 | 0.03 | 88 | 1007.8 |
| 20260505060916 | 38 | 227 | 0.0 | 5.2 | 0.00 | 0.05 | 0.03 | 88 | 1007.7 |
| 20260505060416 | 38 | 167 | 0.0 | 5.2 | 0.00 | 0.05 | 0.03 | 88 | 1007.8 |
| 20260505055916 | 38 | 134 | 0.9 | 5.2 | 0.00 | 0.05 | 0.03 | 88 | 1007.7 |
| 20260505055415 | 38 | 134 | 0.9 | 5.2 | 0.00 | 0.05 | 0.03 | 88 | 1007.8 |
| 20260505054915 | 38 | 133 | 0.0 | 5.2 | 0.00 | 0.05 | 0.03 | 88 | 1007.9 |
| 20260505054415 | 38 | 133 | 0.0 | 5.2 | 0.00 | 0.05 | 0.03 | 87 | 1007.8 |
| 20260505053915 | 38 | 146 | 0.9 | 5.2 | 0.00 | 0.05 | 0.03 | 88 | 1007.8 |
| 20260505053415 | 38 | 190 | 0.9 | 5.2 | 0.00 | 0.05 | 0.03 | 88 | 1007.8 |
| 20260505052915 | 38 | 165 | 0.9 | 5.2 | 0.00 | 0.05 | 0.03 | 88 | 1007.8 |
| 20260505052415 | 38 | 212 | 0.0 | 5.2 | 0.00 | 0.05 | 0.03 | 87 | 1007.7 |
| 20260505051915 | 38 | 153 | 1.7 | 5.2 | 0.00 | 0.05 | 0.03 | 87 | 1007.8 |
| 20260505051415 | 38 | 155 | 0.9 | 5.2 | 0.00 | 0.05 | 0.03 | 88 | 1007.9 |
| 20260505050915 | 38 | 299 | 0.0 | 2.6 | 0.00 | 0.05 | 0.03 | 88 | 1007.9 |
| 20260505050415 | 38 | 325 | 0.0 | 2.6 | 0.00 | 0.05 | 0.03 | 88 | 1008.0 |
| 20260505041416 | 39 | 234 | 0.9 | 7.8 | 0.00 | 0.06 | 0.03 | 88 | 1007.8 |
| 20260505040914 | 39 | 159 | 0.9 | 7.8 | 0.00 | 0.06 | 0.03 | 88 | 1007.8 |
| 20260505040414 | 39 | 231 | 0.0 | 7.8 | 0.00 | 0.06 | 0.03 | 88 | 1007.7 |
| 20260505035914 | 39 | 198 | 0.9 | 7.8 | 0.00 | 0.06 | 0.03 | 88 | 1007.7 |
| 20260505035414 | 39 | 194 | 1.7 | 7.8 | 0.00 | 0.06 | 0.03 | 88 | 1007.7 |
| 20260505034914 | 39 | 244 | 1.7 | 7.8 | 0.00 | 0.06 | 0.03 | 88 | 1007.8 |
| 20260505034414 | 39 | 217 | 1.7 | 7.8 | 0.00 | 0.06 | 0.03 | 88 | 1007.8 |
| 20260505033914 | 39 | 251 | 1.7 | 4.3 | 0.00 | 0.06 | 0.03 | 87 | 1007.8 |
| 20260505033414 | 39 | 169 | 3.5 | 4.3 | 0.00 | 0.06 | 0.03 | 88 | 1007.6 |
| 20260505032914 | 39 | 204 | 0.0 | 3.5 | 0.00 | 0.06 | 0.03 | 87 | 1007.7 |
| 20260505032414 | 39 | 206 | 0.9 | 3.5 | 0.00 | 0.06 | 0.03 | 87 | 1007.7 |
| 20260505031914 | 39 | 184 | 1.7 | 2.6 | 0.00 | 0.06 | 0.03 | 88 | 1007.8 |
| 20260505031414 | 39 | 124 | 0.0 | 2.6 | 0.00 | 0.06 | 0.03 | 87 | 1007.9 |
| 20260505030914 | 39 | 192 | 0.0 | 2.6 | 0.00 | 0.06 | 0.03 | 87 | 1007.7 |
| 20260505030414 | 39 | 227 | 2.6 | 2.6 | 0.00 | 0.06 | 0.03 | 87 | 1007.6 |
| 20260505025914 | 39 | 231 | 0.0 | 6.1 | 0.00 | 0.06 | 0.03 | 87 | 1007.5 |
| 20260505025414 | 39 | 233 | 0.0 | 6.1 | 0.00 | 0.06 | 0.03 | 87 | 1007.7 |
| 20260505024914 | 39 | 162 | 0.9 | 6.1 | 0.00 | 0.06 | 0.03 | 87 | 1007.7 |
| 20260505024414 | 39 | 293 | 0.9 | 6.1 | 0.00 | 0.06 | 0.03 | 87 | 1007.7 |
| 20260505023914 | 39 | 239 | 0.9 | 6.1 | 0.00 | 0.06 | 0.03 | 87 | 1007.7 |
| 20260505023414 | 39 | 155 | 0.0 | 6.1 | 0.00 | 0.06 | 0.03 | 87 | 1007.7 |
| 20260505022914 | 39 | 243 | 0.0 | 6.1 | 0.00 | 0.06 | 0.03 | 86 | 1007.7 |
| 20260505022414 | 39 | 217 | 0.0 | 6.1 | 0.00 | 0.06 | 0.03 | 87 | 1007.8 |
| 20260505021914 | 40 | 208 | 0.9 | 6.1 | 0.00 | 0.06 | 0.03 | 87 | 1007.7 |
| 20260505021414 | 40 | 194 | 1.7 | 6.1 | 0.00 | 0.06 | 0.03 | 86 | 1007.6 |
| 20260505020914 | 40 | 157 | 2.6 | 6.1 | 0.00 | 0.06 | 0.03 | 86 | 1007.7 |
| 20260505020414 | 40 | 270 | 0.9 | 6.1 | 0.00 | 0.06 | 0.03 | 86 | 1007.7 |
| 20260505015914 | 40 | 200 | 0.0 | 6.1 | 0.00 | 0.06 | 0.03 | 86 | 1007.6 |
| 20260505015413 | 40 | 169 | 0.9 | 6.1 | 0.00 | 0.06 | 0.03 | 86 | 1007.8 |
| 20260505014913 | 40 | 266 | 0.0 | 6.1 | 0.00 | 0.06 | 0.03 | 86 | 1007.6 |
| 20260505014414 | 40 | 149 | 0.9 | 6.1 | 0.00 | 0.06 | 0.03 | 86 | 1007.7 |
| 20260505013913 | 40 | 218 | 0.0 | 5.2 | 0.00 | 0.06 | 0.03 | 86 | 1007.7 |
| 20260505013413 | 40 | 201 | 0.0 | 5.2 | 0.00 | 0.06 | 0.03 | 86 | 1007.8 |
| 20260505012913 | 40 | 179 | 0.0 | 5.2 | 0.00 | 0.06 | 0.03 | 86 | 1007.7 |
| 20260505012413 | 40 | 172 | 1.7 | 5.2 | 0.00 | 0.06 | 0.03 | 86 | 1007.8 |
| 20260505011913 | 40 | 198 | 0.0 | 3.5 | 0.00 | 0.06 | 0.03 | 86 | 1007.8 |
| 20260505011413 | 40 | 206 | 1.7 | 3.5 | 0.00 | 0.06 | 0.03 | 85 | 1008.1 |
| 20260505010913 | 40 | 267 | 0.0 | 3.5 | 0.00 | 0.06 | 0.03 | 85 | 1007.8 |
| 20260505010413 | 40 | 302 | 0.0 | 3.5 | 0.00 | 0.06 | 0.03 | 85 | 1007.8 |
| 20260505005913 | 40 | 118 | 5.2 | 8.7 | 0.00 | 0.06 | 0.03 | 85 | 1007.8 |
| 20260505005413 | 40 | 139 | 0.0 | 8.7 | 0.00 | 0.06 | 0.03 | 85 | 1007.9 |
| 20260505004913 | 40 | 93 | 0.0 | 8.7 | 0.00 | 0.06 | 0.03 | 85 | 1007.8 |
| 20260505004413 | 40 | 170 | 0.9 | 8.7 | 0.00 | 0.06 | 0.03 | 85 | 1007.9 |
| 20260505003913 | 41 | 320 | 0.9 | 8.7 | 0.00 | 0.06 | 0.03 | 85 | 1008.0 |
| 20260505003413 | 41 | 173 | 0.9 | 8.7 | 0.00 | 0.06 | 0.03 | 84 | 1008.0 |
| 20260505002913 | 41 | 233 | 2.6 | 8.7 | 0.00 | 0.06 | 0.03 | 84 | 1007.9 |
| 20260505002413 | 41 | 138 | 0.0 | 8.7 | 0.00 | 0.06 | 0.03 | 84 | 1008.0 |
| 20260505001913 | 41 | 298 | 1.7 | 7.8 | 0.00 | 0.06 | 0.03 | 84 | 1007.9 |
| 20260505001413 | 41 | 200 | 0.9 | 7.8 | 0.00 | 0.06 | 0.03 | 84 | 1008.0 |
| 20260505000913 | 41 | 222 | 1.7 | 7.8 | 0.00 | 0.06 | 0.03 | 83 | 1007.9 |
| 20260505000413 | 41 | 153 | 0.0 | 5.2 | 0.00 | 0.06 | 0.03 | 82 | 1007.8 |
| 20260504235912 | 41 | 159 | 1.7 | 5.2 | 0.00 | 0.06 | 0.03 | 81 | 1007.9 |
| 20260504235412 | 41 | 163 | 0.9 | 5.2 | 0.00 | 0.06 | 0.03 | 80 | 1008.0 |
| 20260504234912 | 41 | 252 | 0.0 | 5.2 | 0.00 | 0.06 | 0.03 | 81 | 1007.9 |
| 20260504234412 | 41 | 174 | 0.9 | 5.2 | 0.00 | 0.06 | 0.03 | 81 | 1007.9 |
| 20260504233912 | 41 | 213 | 0.0 | 5.2 | 0.00 | 0.06 | 0.03 | 81 | 1008.0 |
| 20260504233412 | 41 | 244 | 0.0 | 5.2 | 0.00 | 0.06 | 0.03 | 82 | 1008.1 |
| 20260504232912 | 41 | 174 | 0.0 | 5.2 | 0.00 | 0.06 | 0.03 | 82 | 1008.0 |
| 20260504232412 | 41 | 239 | 0.0 | 5.2 | 0.00 | 0.06 | 0.03 | 82 | 1007.9 |
| 20260504231912 | 41 | 137 | 1.7 | 5.2 | 0.00 | 0.06 | 0.03 | 81 | 1007.9 |
| 20260504231412 | 41 | 138 | 1.7 | 5.2 | 0.00 | 0.06 | 0.03 | 81 | 1007.9 |
| 20260504230912 | 41 | 109 | 2.6 | 5.2 | 0.00 | 0.06 | 0.03 | 82 | 1008.0 |
| 20260504230412 | 41 | 160 | 4.3 | 4.3 | 0.00 | 0.06 | 0.03 | 82 | 1008.0 |
| 20260504225912 | 41 | 243 | 0.0 | 7.8 | 0.00 | 0.06 | 0.03 | 81 | 1008.0 |
| 20260504225412 | 41 | 201 | 1.7 | 7.8 | 0.00 | 0.06 | 0.03 | 81 | 1008.0 |
| 20260504224912 | 41 | 202 | 1.7 | 7.8 | 0.00 | 0.06 | 0.03 | 81 | 1008.1 |
| 20260504224412 | 42 | 133 | 1.7 | 7.8 | 0.00 | 0.06 | 0.03 | 80 | 1008.1 |
| 20260504223912 | 42 | 132 | 1.7 | 7.8 | 0.00 | 0.06 | 0.03 | 80 | 1008.1 |
| 20260504223412 | 42 | 166 | 2.6 | 7.8 | 0.00 | 0.06 | 0.03 | 80 | 1008.1 |
| 20260504222912 | 42 | 166 | 0.0 | 7.8 | 0.00 | 0.06 | 0.03 | 79 | 1008.1 |
| 20260504222412 | 42 | 162 | 0.0 | 7.8 | 0.00 | 0.06 | 0.03 | 79 | 1008.1 |
| 20260504221912 | 42 | 161 | 1.7 | 7.8 | 0.00 | 0.06 | 0.03 | 78 | 1008.1 |
| 20260504221412 | 42 | 178 | 0.0 | 7.8 | 0.00 | 0.06 | 0.03 | 77 | 1008.2 |
| 20260504220912 | 42 | 191 | 0.0 | 7.8 | 0.00 | 0.06 | 0.03 | 78 | 1008.1 |
| 20260504220411 | 42 | 153 | 0.9 | 7.8 | 0.00 | 0.06 | 0.03 | 78 | 1008.1 |
| 20260504215911 | 42 | 204 | 1.7 | 7.8 | 0.00 | 0.06 | 0.03 | 76 | 1008.1 |
| 20260504215411 | 42 | 248 | 2.6 | 7.8 | 0.00 | 0.06 | 0.03 | 74 | 1008.0 |
| 20260504214911 | 43 | 150 | 1.7 | 7.8 | 0.00 | 0.06 | 0.03 | 74 | 1008.4 |
| 20260504214411 | 43 | 144 | 1.7 | 7.8 | 0.00 | 0.06 | 0.03 | 74 | 1008.3 |
| 20260504213911 | 43 | 232 | 1.7 | 7.8 | 0.00 | 0.06 | 0.03 | 76 | 1008.4 |
| 20260504213411 | 43 | 137 | 1.7 | 7.8 | 0.00 | 0.06 | 0.03 | 75 | 1008.4 |
| 20260504212911 | 44 | 216 | 2.6 | 7.8 | 0.00 | 0.06 | 0.03 | 76 | 1008.3 |
| 20260504212411 | 43 | 163 | 2.6 | 7.8 | 0.00 | 0.06 | 0.03 | 79 | 1008.4 |
| 20260504211911 | 43 | 177 | 0.0 | 7.8 | 0.00 | 0.06 | 0.03 | 77 | 1008.5 |
| 20260504211411 | 43 | 161 | 0.9 | 7.8 | 0.00 | 0.06 | 0.03 | 78 | 1008.5 |
| 20260504210911 | 43 | 188 | 0.9 | 6.1 | 0.00 | 0.06 | 0.03 | 80 | 1008.5 |
| 20260504210411 | 42 | 118 | 0.0 | 6.1 | 0.00 | 0.06 | 0.03 | 79 | 1008.4 |
| 20260504205911 | 42 | 144 | 0.0 | 13.0 | 0.00 | 0.06 | 0.03 | 80 | 1008.6 |
| 20260504205411 | 42 | 151 | 2.6 | 13.0 | 0.00 | 0.06 | 0.03 | 82 | 1008.6 |
| 20260504204911 | 42 | 133 | 3.5 | 13.0 | 0.00 | 0.06 | 0.03 | 84 | 1008.4 |
| 20260504204411 | 41 | 187 | 0.9 | 13.0 | 0.00 | 0.06 | 0.03 | 84 | 1008.5 |
| 20260504203911 | 40 | 123 | 2.6 | 13.0 | 0.00 | 0.06 | 0.03 | 85 | 1008.5 |
| 20260504203411 | 40 | 186 | 0.9 | 13.0 | 0.00 | 0.06 | 0.03 | 85 | 1008.6 |
| 20260504202911 | 40 | 152 | 0.0 | 13.0 | 0.00 | 0.06 | 0.03 | 85 | 1008.6 |
| 20260504202411 | 40 | 131 | 2.6 | 13.0 | 0.00 | 0.06 | 0.03 | 86 | 1008.4 |
| 20260504201910 | 39 | 168 | 2.6 | 13.0 | 0.00 | 0.06 | 0.03 | 85 | 1008.3 |
| 20260504201411 | 39 | 121 | 3.5 | 13.0 | 0.00 | 0.06 | 0.03 | 86 | 1008.4 |
| 20260504200911 | 39 | 125 | 3.5 | 13.0 | 0.00 | 0.06 | 0.03 | 86 | 1008.5 |
| 20260504200410 | 39 | 123 | 1.7 | 13.0 | 0.00 | 0.06 | 0.03 | 86 | 1008.6 |
| 20260504195910 | 38 | 114 | 2.6 | 13.0 | 0.00 | 0.06 | 0.03 | 85 | 1008.4 |
| 20260504195410 | 38 | 115 | 2.6 | 13.0 | 0.00 | 0.06 | 0.03 | 86 | 1008.4 |
| 20260504194910 | 38 | 162 | 1.7 | 13.0 | 0.00 | 0.06 | 0.03 | 86 | 1008.5 |
| 20260504194410 | 38 | 160 | 4.3 | 13.0 | 0.00 | 0.06 | 0.03 | 86 | 1008.5 |
| 20260504193910 | 38 | 115 | 2.6 | 13.0 | 0.00 | 0.06 | 0.03 | 86 | 1008.3 |
| 20260504193410 | 38 | 126 | 4.3 | 13.0 | 0.00 | 0.06 | 0.03 | 86 | 1008.3 |
| 20260504192910 | 38 | 206 | 2.6 | 13.0 | 0.00 | 0.06 | 0.03 | 86 | 1008.3 |
| 20260504192410 | 38 | 154 | 2.6 | 13.0 | 0.00 | 0.06 | 0.03 | 86 | 1008.2 |
| 20260504191910 | 38 | 137 | 2.6 | 13.0 | 0.00 | 0.06 | 0.03 | 87 | 1008.4 |
| 20260504191410 | 38 | 149 | 2.6 | 7.8 | 0.00 | 0.06 | 0.03 | 87 | 1008.6 |
| 20260504190910 | 38 | 118 | 2.6 | 7.0 | 0.00 | 0.06 | 0.03 | 87 | 1008.4 |
| 20260504190410 | 38 | 142 | 3.5 | 5.2 | 0.00 | 0.06 | 0.03 | 87 | 1008.4 |
| 20260504185910 | 38 | 136 | 4.3 | 8.7 | 0.00 | 0.06 | 0.03 | 87 | 1008.5 |
| 20260504185410 | 38 | 133 | 1.7 | 8.7 | 0.00 | 0.06 | 0.03 | 87 | 1008.5 |
| 20260504184910 | 38 | 146 | 2.6 | 8.7 | 0.00 | 0.06 | 0.03 | 88 | 1008.5 |
| 20260504184410 | 38 | 133 | 2.6 | 8.7 | 0.00 | 0.06 | 0.03 | 87 | 1008.5 |
| 20260504183910 | 38 | 127 | 2.6 | 8.7 | 0.00 | 0.06 | 0.03 | 88 | 1008.5 |
| 20260504183410 | 38 | 161 | 2.6 | 8.7 | 0.00 | 0.06 | 0.03 | 88 | 1008.4 |
| 20260504182909 | 38 | 133 | 1.7 | 8.7 | 0.00 | 0.06 | 0.03 | 88 | 1008.4 |
| 20260504182409 | 38 | 138 | 2.6 | 8.7 | 0.00 | 0.06 | 0.03 | 88 | 1008.5 |
| 20260504181909 | 38 | 100 | 0.9 | 8.7 | 0.00 | 0.06 | 0.03 | 88 | 1008.4 |
| 20260504181409 | 38 | 162 | 1.7 | 8.7 | 0.00 | 0.06 | 0.03 | 88 | 1008.4 |
| 20260504180909 | 37 | 158 | 2.6 | 8.7 | 0.00 | 0.06 | 0.03 | 87 | 1008.3 |
| 20260504180409 | 37 | 151 | 2.6 | 8.7 | 0.00 | 0.06 | 0.03 | 87 | 1008.3 |
| 20260504175909 | 37 | 140 | 3.5 | 7.8 | 0.00 | 0.06 | 0.03 | 87 | 1008.1 |
| 20260504175409 | 37 | 163 | 4.3 | 7.8 | 0.00 | 0.06 | 0.03 | 87 | 1008.1 |
| 20260504174909 | 37 | 123 | 2.6 | 7.8 | 0.00 | 0.06 | 0.03 | 87 | 1008.2 |
| 20260504174409 | 37 | 145 | 3.5 | 7.8 | 0.00 | 0.06 | 0.03 | 88 | 1008.2 |
| 20260504173909 | 37 | 148 | 3.5 | 7.8 | 0.00 | 0.06 | 0.03 | 88 | 1008.0 |
| 20260504173409 | 37 | 157 | 1.7 | 7.8 | 0.00 | 0.06 | 0.03 | 87 | 1007.9 |
| 20260504172909 | 37 | 142 | 3.5 | 7.8 | 0.00 | 0.06 | 0.03 | 87 | 1007.9 |
| 20260504172409 | 37 | 134 | 2.6 | 7.8 | 0.00 | 0.06 | 0.03 | 87 | 1007.9 |
| 20260504171909 | 37 | 136 | 2.6 | 7.8 | 0.00 | 0.06 | 0.03 | 87 | 1008.0 |
| 20260504171409 | 37 | 153 | 6.1 | 7.8 | 0.00 | 0.06 | 0.03 | 87 | 1008.0 |
| 20260504170909 | 37 | 132 | 2.6 | 7.8 | 0.00 | 0.06 | 0.03 | 87 | 1007.7 |
| 20260504170408 | 37 | 136 | 0.9 | 7.8 | 0.00 | 0.06 | 0.03 | 87 | 1007.7 |
| 20260504160408 | 36 | 143 | 1.7 | 7.8 | 0.00 | 0.06 | 0.03 | 87 | 1007.5 |
| 20260504150907 | 36 | 156 | 1.7 | 4.3 | 0.00 | 0.06 | 0.03 | 87 | 1007.5 |
| 20260504150407 | 36 | 198 | 0.0 | 4.3 | 0.00 | 0.06 | 0.03 | 87 | 1007.4 |
| 20260504140907 | 36 | 157 | 2.6 | 8.7 | 0.00 | 0.06 | 0.03 | 87 | 1007.4 |
| 20260504140407 | 36 | 156 | 0.0 | 8.7 | 0.00 | 0.06 | 0.03 | 87 | 1007.4 |
| 20260504130406 | 36 | 163 | 0.9 | 2.6 | 0.00 | 0.06 | 0.03 | 87 | 1007.2 |
| 20260504110405 | 37 | 144 | 2.6 | 2.6 | 0.01 | 0.06 | 0.03 | 87 | 1007.2 |